Nuttings Lake, Massachusetts
Current Conditions -  °F | °C
As of 5:21 AM on Thursday 23 Oct 2014 (Local Time) from KBED Reporting Station
Moderate Rain Moderate Rain  
Wind Chill: 44°   Ceiling: 1200
Heat Index: 48°   Visibility: 4mi
Dew Point: 47°   Wind: 9mph
Humidity: 96%   Direction: 360°N
Pressure: 29.73"   Gusts: NA
Location:  42.5381°N, 71.2689°W
Report Text: KBED 230921Z AUTO 36008KT 4SM RA BR OVC012 09/08 A2973 RMK AO2 P0003 T00890083 TSNO
Loading
Personal Weather Stations






























Interactive Weather Map
Tropical Storm Tracking
New forecast layout! Learn more

10-Day Weather Forecast

Advertisements
Track Severe Weather on mobile